sensor_id;sensor_type;location;lat;lon;timestamp;P1;durP1;ratioP1;P2;durP2;ratioP2
54665;SDS011;40566;50.006;36.180;2024-02-14T00:04:24;31.63;;;14.20;;
54665;SDS011;40566;50.006;36.180;2024-02-14T00:09:43;21.00;;;7.88;;
54665;SDS011;40566;50.006;36.180;2024-02-14T00:15:02;19.83;;;7.45;;
54665;SDS011;40566;50.006;36.180;2024-02-14T00:20:23;30.08;;;14.20;;
54665;SDS011;40566;50.006;36.180;2024-02-14T00:25:42;14.27;;;5.55;;
54665;SDS011;40566;50.006;36.180;2024-02-14T00:31:01;22.67;;;7.18;;
54665;SDS011;40566;50.006;36.180;2024-02-14T00:36:20;15.88;;;5.22;;
54665;SDS011;40566;50.006;36.180;2024-02-14T00:41:39;19.95;;;7.28;;
54665;SDS011;40566;50.006;36.180;2024-02-14T00:46:58;19.58;;;7.47;;
54665;SDS011;40566;50.006;36.180;2024-02-14T00:52:18;17.38;;;6.75;;
54665;SDS011;40566;50.006;36.180;2024-02-14T00:57:40;28.70;;;14.02;;
54665;SDS011;40566;50.006;36.180;2024-02-14T01:02:59;20.13;;;6.88;;
54665;SDS011;40566;50.006;36.180;2024-02-14T01:08:18;29.38;;;13.77;;
54665;SDS011;40566;50.006;36.180;2024-02-14T01:13:36;29.35;;;13.43;;
54665;SDS011;40566;50.006;36.180;2024-02-14T01:18:56;21.77;;;8.65;;
54665;SDS011;40566;50.006;36.180;2024-02-14T01:24:15;28.90;;;13.85;;
54665;SDS011;40566;50.006;36.180;2024-02-14T01:29:35;29.60;;;13.57;;
54665;SDS011;40566;50.006;36.180;2024-02-14T01:34:54;20.02;;;6.88;;
54665;SDS011;40566;50.006;36.180;2024-02-14T01:40:13;15.98;;;6.55;;
54665;SDS011;40566;50.006;36.180;2024-02-14T01:45:31;21.60;;;6.28;;
54665;SDS011;40566;50.006;36.180;2024-02-14T01:50:50;29.40;;;14.80;;
54665;SDS011;40566;50.006;36.180;2024-02-14T01:56:10;23.05;;;8.80;;
54665;SDS011;40566;50.006;36.180;2024-02-14T02:01:29;25.92;;;8.80;;
54665;SDS011;40566;50.006;36.180;2024-02-14T02:06:48;20.77;;;7.57;;
54665;SDS011;40566;50.006;36.180;2024-02-14T02:12:08;21.98;;;7.18;;
54665;SDS011;40566;50.006;36.180;2024-02-14T02:17:27;30.58;;;14.85;;
54665;SDS011;40566;50.006;36.180;2024-02-14T02:22:46;21.10;;;7.50;;
54665;SDS011;40566;50.006;36.180;2024-02-14T02:28:09;19.65;;;7.38;;
54665;SDS011;40566;50.006;36.180;2024-02-14T02:33:28;33.35;;;14.60;;
54665;SDS011;40566;50.006;36.180;2024-02-14T02:38:47;33.38;;;15.18;;
54665;SDS011;40566;50.006;36.180;2024-02-14T02:44:07;20.83;;;8.20;;
54665;SDS011;40566;50.006;36.180;2024-02-14T02:49:26;17.25;;;7.25;;
54665;SDS011;40566;50.006;36.180;2024-02-14T02:54:45;38.10;;;16.50;;
54665;SDS011;40566;50.006;36.180;2024-02-14T03:00:06;23.88;;;8.32;;
54665;SDS011;40566;50.006;36.180;2024-02-14T03:05:26;18.75;;;7.75;;
54665;SDS011;40566;50.006;36.180;2024-02-14T03:10:46;36.33;;;15.50;;
54665;SDS011;40566;50.006;36.180;2024-02-14T03:16:05;22.23;;;8.57;;
54665;SDS011;40566;50.006;36.180;2024-02-14T03:21:24;26.50;;;9.93;;
54665;SDS011;40566;50.006;36.180;2024-02-14T03:26:43;38.70;;;17.67;;
54665;SDS011;40566;50.006;36.180;2024-02-14T03:32:02;37.92;;;18.42;;
54665;SDS011;40566;50.006;36.180;2024-02-14T03:37:23;19.73;;;8.05;;
54665;SDS011;40566;50.006;36.180;2024-02-14T03:42:42;39.47;;;16.92;;
54665;SDS011;40566;50.006;36.180;2024-02-14T03:48:00;22.85;;;9.05;;
54665;SDS011;40566;50.006;36.180;2024-02-14T03:53:19;23.05;;;7.30;;
54665;SDS011;40566;50.006;36.180;2024-02-14T03:58:38;43.95;;;18.92;;
54665;SDS011;40566;50.006;36.180;2024-02-14T04:03:57;27.38;;;9.23;;
54665;SDS011;40566;50.006;36.180;2024-02-14T04:09:18;28.52;;;10.15;;
54665;SDS011;40566;50.006;36.180;2024-02-14T04:14:37;26.65;;;11.68;;
54665;SDS011;40566;50.006;36.180;2024-02-14T04:19:56;30.00;;;12.10;;
54665;SDS011;40566;50.006;36.180;2024-02-14T04:25:14;25.33;;;9.27;;
54665;SDS011;40566;50.006;36.180;2024-02-14T04:30:33;20.13;;;8.20;;
54665;SDS011;40566;50.006;36.180;2024-02-14T04:35:54;26.67;;;11.07;;
54665;SDS011;40566;50.006;36.180;2024-02-14T04:41:13;28.67;;;12.70;;
54665;SDS011;40566;50.006;36.180;2024-02-14T04:46:33;21.02;;;9.23;;
54665;SDS011;40566;50.006;36.180;2024-02-14T04:51:57;30.42;;;9.98;;
54665;SDS011;40566;50.006;36.180;2024-02-14T04:57:16;26.15;;;10.55;;
54665;SDS011;40566;50.006;36.180;2024-02-14T05:02:37;30.67;;;11.20;;
54665;SDS011;40566;50.006;36.180;2024-02-14T05:07:56;47.70;;;21.17;;
54665;SDS011;40566;50.006;36.180;2024-02-14T05:13:15;24.95;;;9.93;;
54665;SDS011;40566;50.006;36.180;2024-02-14T05:18:34;31.20;;;11.60;;
54665;SDS011;40566;50.006;36.180;2024-02-14T05:23:53;29.90;;;11.02;;
54665;SDS011;40566;50.006;36.180;2024-02-14T05:29:12;31.13;;;13.00;;
54665;SDS011;40566;50.006;36.180;2024-02-14T05:34:32;27.55;;;10.52;;
54665;SDS011;40566;50.006;36.180;2024-02-14T05:39:52;23.42;;;10.68;;
54665;SDS011;40566;50.006;36.180;2024-02-14T05:45:12;35.83;;;13.48;;
54665;SDS011;40566;50.006;36.180;2024-02-14T05:50:31;27.67;;;11.75;;
54665;SDS011;40566;50.006;36.180;2024-02-14T05:55:50;26.73;;;10.05;;
54665;SDS011;40566;50.006;36.180;2024-02-14T06:01:10;29.02;;;11.75;;
54665;SDS011;40566;50.006;36.180;2024-02-14T06:06:29;45.70;;;21.40;;
54665;SDS011;40566;50.006;36.180;2024-02-14T06:11:48;25.55;;;9.77;;
54665;SDS011;40566;50.006;36.180;2024-02-14T06:17:07;28.30;;;9.63;;
54665;SDS011;40566;50.006;36.180;2024-02-14T06:22:26;26.92;;;10.32;;
54665;SDS011;40566;50.006;36.180;2024-02-14T06:27:44;47.42;;;21.67;;
54665;SDS011;40566;50.006;36.180;2024-02-14T06:33:04;25.33;;;11.23;;
54665;SDS011;40566;50.006;36.180;2024-02-14T06:38:23;20.83;;;8.77;;
54665;SDS011;40566;50.006;36.180;2024-02-14T06:43:42;45.17;;;23.10;;
54665;SDS011;40566;50.006;36.180;2024-02-14T06:49:01;43.75;;;20.65;;
54665;SDS011;40566;50.006;36.180;2024-02-14T06:54:20;44.22;;;22.13;;
54665;SDS011;40566;50.006;36.180;2024-02-14T06:59:39;47.42;;;21.60;;
54665;SDS011;40566;50.006;36.180;2024-02-14T07:04:57;45.22;;;19.77;;
54665;SDS011;40566;50.006;36.180;2024-02-14T07:10:16;38.25;;;18.65;;
54665;SDS011;40566;50.006;36.180;2024-02-14T07:15:35;40.78;;;19.35;;
54665;SDS011;40566;50.006;36.180;2024-02-14T07:20:54;24.50;;;8.90;;
54665;SDS011;40566;50.006;36.180;2024-02-14T07:26:13;41.55;;;19.35;;
54665;SDS011;40566;50.006;36.180;2024-02-14T07:31:32;37.40;;;17.33;;
54665;SDS011;40566;50.006;36.180;2024-02-14T07:36:52;36.67;;;16.77;;
54665;SDS011;40566;50.006;36.180;2024-02-14T07:42:11;38.20;;;18.05;;
54665;SDS011;40566;50.006;36.180;2024-02-14T07:47:30;36.45;;;17.38;;
54665;SDS011;40566;50.006;36.180;2024-02-14T07:52:49;36.83;;;19.33;;
54665;SDS011;40566;50.006;36.180;2024-02-14T07:58:09;36.03;;;17.35;;
54665;SDS011;40566;50.006;36.180;2024-02-14T08:03:28;34.20;;;16.92;;
54665;SDS011;40566;50.006;36.180;2024-02-14T08:08:46;34.45;;;18.45;;
54665;SDS011;40566;50.006;36.180;2024-02-14T08:14:10;39.70;;;20.55;;
54665;SDS011;40566;50.006;36.180;2024-02-14T08:19:30;37.63;;;19.17;;
54665;SDS011;40566;50.006;36.180;2024-02-14T08:24:49;37.85;;;18.95;;
54665;SDS011;40566;50.006;36.180;2024-02-14T08:30:08;37.45;;;20.27;;
54665;SDS011;40566;50.006;36.180;2024-02-14T08:35:27;34.20;;;17.25;;
54665;SDS011;40566;50.006;36.180;2024-02-14T08:40:46;34.72;;;16.08;;
54665;SDS011;40566;50.006;36.180;2024-02-14T08:46:12;34.20;;;16.92;;
54665;SDS011;40566;50.006;36.180;2024-02-14T08:51:31;35.33;;;17.27;;
54665;SDS011;40566;50.006;36.180;2024-02-14T08:56:50;32.75;;;17.05;;
54665;SDS011;40566;50.006;36.180;2024-02-14T09:02:14;30.73;;;15.00;;
54665;SDS011;40566;50.006;36.180;2024-02-14T09:07:35;27.40;;;14.20;;
54665;SDS011;40566;50.006;36.180;2024-02-14T09:12:55;29.65;;;15.38;;
54665;SDS011;40566;50.006;36.180;2024-02-14T09:18:14;32.50;;;15.75;;
54665;SDS011;40566;50.006;36.180;2024-02-14T09:23:35;33.17;;;17.63;;
54665;SDS011;40566;50.006;36.180;2024-02-14T09:28:57;28.05;;;15.15;;
54665;SDS011;40566;50.006;36.180;2024-02-14T09:34:16;33.38;;;15.30;;
54665;SDS011;40566;50.006;36.180;2024-02-14T09:39:38;24.25;;;12.70;;
54665;SDS011;40566;50.006;36.180;2024-02-14T09:44:58;24.45;;;12.65;;
54665;SDS011;40566;50.006;36.180;2024-02-14T09:50:21;24.67;;;12.18;;
54665;SDS011;40566;50.006;36.180;2024-02-14T09:55:42;27.60;;;14.68;;
54665;SDS011;40566;50.006;36.180;2024-02-14T10:01:01;31.38;;;15.32;;
54665;SDS011;40566;50.006;36.180;2024-02-14T10:06:20;30.10;;;15.25;;
54665;SDS011;40566;50.006;36.180;2024-02-14T10:11:40;34.25;;;15.75;;
54665;SDS011;40566;50.006;36.180;2024-02-14T10:16:59;25.70;;;13.38;;
54665;SDS011;40566;50.006;36.180;2024-02-14T10:22:18;27.85;;;13.85;;
54665;SDS011;40566;50.006;36.180;2024-02-14T10:27:37;26.50;;;13.55;;
54665;SDS011;40566;50.006;36.180;2024-02-14T10:32:58;28.00;;;14.02;;
54665;SDS011;40566;50.006;36.180;2024-02-14T10:38:18;27.70;;;13.95;;
54665;SDS011;40566;50.006;36.180;2024-02-14T10:43:40;26.90;;;13.23;;
54665;SDS011;40566;50.006;36.180;2024-02-14T10:49:03;23.50;;;12.10;;
54665;SDS011;40566;50.006;36.180;2024-02-14T10:54:23;25.27;;;12.80;;
54665;SDS011;40566;50.006;36.180;2024-02-14T10:59:44;26.27;;;11.70;;
54665;SDS011;40566;50.006;36.180;2024-02-14T11:05:05;23.90;;;12.68;;
54665;SDS011;40566;50.006;36.180;2024-02-14T11:10:25;24.90;;;12.68;;
54665;SDS011;40566;50.006;36.180;2024-02-14T11:15:46;23.88;;;12.50;;
54665;SDS011;40566;50.006;36.180;2024-02-14T11:21:15;24.60;;;12.73;;
54665;SDS011;40566;50.006;36.180;2024-02-14T11:32:04;21.75;;;11.90;;
54665;SDS011;40566;50.006;36.180;2024-02-14T11:37:27;25.20;;;13.02;;
54665;SDS011;40566;50.006;36.180;2024-02-14T11:42:50;22.92;;;12.43;;
54665;SDS011;40566;50.006;36.180;2024-02-14T11:48:12;25.13;;;13.13;;
54665;SDS011;40566;50.006;36.180;2024-02-14T11:53:32;23.08;;;11.27;;
54665;SDS011;40566;50.006;36.180;2024-02-14T11:58:50;23.88;;;12.38;;
54665;SDS011;40566;50.006;36.180;2024-02-14T12:04:10;25.05;;;11.73;;
54665;SDS011;40566;50.006;36.180;2024-02-14T12:09:29;22.88;;;12.40;;
54665;SDS011;40566;50.006;36.180;2024-02-14T12:14:53;24.35;;;13.07;;
54665;SDS011;40566;50.006;36.180;2024-02-14T12:20:12;22.13;;;11.32;;
54665;SDS011;40566;50.006;36.180;2024-02-14T12:25:32;22.98;;;11.50;;
54665;SDS011;40566;50.006;36.180;2024-02-14T12:30:52;20.40;;;11.65;;
54665;SDS011;40566;50.006;36.180;2024-02-14T12:36:14;24.48;;;12.50;;
54665;SDS011;40566;50.006;36.180;2024-02-14T12:41:33;23.48;;;12.80;;
54665;SDS011;40566;50.006;36.180;2024-02-14T12:46:56;25.20;;;12.98;;
54665;SDS011;40566;50.006;36.180;2024-02-14T12:52:16;26.00;;;13.00;;
54665;SDS011;40566;50.006;36.180;2024-02-14T12:57:35;23.58;;;13.32;;
54665;SDS011;40566;50.006;36.180;2024-02-14T13:02:54;23.05;;;12.68;;
54665;SDS011;40566;50.006;36.180;2024-02-14T13:08:13;23.83;;;12.45;;
54665;SDS011;40566;50.006;36.180;2024-02-14T13:13:32;24.83;;;12.23;;
54665;SDS011;40566;50.006;36.180;2024-02-14T13:18:51;24.00;;;12.27;;
54665;SDS011;40566;50.006;36.180;2024-02-14T13:24:11;27.52;;;14.15;;
54665;SDS011;40566;50.006;36.180;2024-02-14T13:29:31;28.40;;;13.73;;
54665;SDS011;40566;50.006;36.180;2024-02-14T13:34:50;23.48;;;12.05;;
54665;SDS011;40566;50.006;36.180;2024-02-14T13:40:09;24.90;;;12.55;;
54665;SDS011;40566;50.006;36.180;2024-02-14T13:45:39;24.15;;;12.48;;
54665;SDS011;40566;50.006;36.180;2024-02-14T13:51:03;26.52;;;13.30;;
54665;SDS011;40566;50.006;36.180;2024-02-14T13:56:22;26.20;;;13.80;;
54665;SDS011;40566;50.006;36.180;2024-02-14T14:01:41;27.15;;;14.38;;
54665;SDS011;40566;50.006;36.180;2024-02-14T14:07:00;26.75;;;14.93;;
54665;SDS011;40566;50.006;36.180;2024-02-14T14:12:22;24.77;;;13.50;;
54665;SDS011;40566;50.006;36.180;2024-02-14T14:17:42;25.92;;;14.75;;
54665;SDS011;40566;50.006;36.180;2024-02-14T14:23:01;29.88;;;15.10;;
54665;SDS011;40566;50.006;36.180;2024-02-14T14:28:22;30.30;;;16.45;;
54665;SDS011;40566;50.006;36.180;2024-02-14T14:33:43;28.02;;;15.07;;
54665;SDS011;40566;50.006;36.180;2024-02-14T14:39:02;27.92;;;14.75;;
54665;SDS011;40566;50.006;36.180;2024-02-14T14:44:22;18.10;;;7.75;;
54665;SDS011;40566;50.006;36.180;2024-02-14T14:49:41;29.52;;;15.77;;
54665;SDS011;40566;50.006;36.180;2024-02-14T14:55:00;27.73;;;14.50;;
54665;SDS011;40566;50.006;36.180;2024-02-14T15:00:19;24.65;;;14.38;;
54665;SDS011;40566;50.006;36.180;2024-02-14T15:05:39;16.55;;;6.78;;
54665;SDS011;40566;50.006;36.180;2024-02-14T15:10:58;25.98;;;14.80;;
54665;SDS011;40566;50.006;36.180;2024-02-14T15:16:17;25.73;;;14.00;;
54665;SDS011;40566;50.006;36.180;2024-02-14T15:21:36;26.88;;;14.35;;
54665;SDS011;40566;50.006;36.180;2024-02-14T15:26:55;17.23;;;6.72;;
54665;SDS011;40566;50.006;36.180;2024-02-14T15:32:19;21.25;;;9.65;;
54665;SDS011;40566;50.006;36.180;2024-02-14T15:37:56;21.80;;;9.15;;
54665;SDS011;40566;50.006;36.180;2024-02-14T15:43:16;27.52;;;10.68;;
54665;SDS011;40566;50.006;36.180;2024-02-14T15:48:35;70.57;;;31.13;;
54665;SDS011;40566;50.006;36.180;2024-02-14T15:53:54;21.80;;;8.15;;
54665;SDS011;40566;50.006;36.180;2024-02-14T15:59:13;27.60;;;14.40;;
54665;SDS011;40566;50.006;36.180;2024-02-14T16:04:34;14.48;;;6.38;;
54665;SDS011;40566;50.006;36.180;2024-02-14T16:09:53;16.85;;;7.15;;
54665;SDS011;40566;50.006;36.180;2024-02-14T16:15:12;17.60;;;6.90;;
54665;SDS011;40566;50.006;36.180;2024-02-14T16:20:31;11.60;;;4.82;;
54665;SDS011;40566;50.006;36.180;2024-02-14T16:25:50;12.05;;;5.10;;
54665;SDS011;40566;50.006;36.180;2024-02-14T16:31:09;19.40;;;8.02;;
54665;SDS011;40566;50.006;36.180;2024-02-14T16:36:29;13.95;;;5.90;;
54665;SDS011;40566;50.006;36.180;2024-02-14T16:41:50;15.07;;;6.82;;
54665;SDS011;40566;50.006;36.180;2024-02-14T16:47:09;17.23;;;7.00;;
54665;SDS011;40566;50.006;36.180;2024-02-14T16:52:29;12.52;;;4.65;;
54665;SDS011;40566;50.006;36.180;2024-02-14T16:57:48;25.55;;;9.75;;
54665;SDS011;40566;50.006;36.180;2024-02-14T17:03:07;27.65;;;12.73;;
54665;SDS011;40566;50.006;36.180;2024-02-14T17:08:27;15.07;;;6.28;;
54665;SDS011;40566;50.006;36.180;2024-02-14T17:13:46;16.70;;;7.20;;
54665;SDS011;40566;50.006;36.180;2024-02-14T17:19:05;15.68;;;5.68;;
54665;SDS011;40566;50.006;36.180;2024-02-14T17:24:25;18.17;;;6.85;;
54665;SDS011;40566;50.006;36.180;2024-02-14T17:29:45;18.60;;;6.97;;
54665;SDS011;40566;50.006;36.180;2024-02-14T17:35:06;30.10;;;15.10;;
54665;SDS011;40566;50.006;36.180;2024-02-14T17:40:27;14.30;;;6.07;;
54665;SDS011;40566;50.006;36.180;2024-02-14T17:45:46;14.05;;;6.38;;
54665;SDS011;40566;50.006;36.180;2024-02-14T17:51:05;15.88;;;5.78;;
54665;SDS011;40566;50.006;36.180;2024-02-14T17:56:25;13.98;;;6.15;;
54665;SDS011;40566;50.006;36.180;2024-02-14T18:01:44;10.93;;;4.95;;
54665;SDS011;40566;50.006;36.180;2024-02-14T18:07:04;24.38;;;7.05;;
54665;SDS011;40566;50.006;36.180;2024-02-14T18:12:23;18.38;;;7.38;;
54665;SDS011;40566;50.006;36.180;2024-02-14T18:17:44;18.63;;;8.75;;
54665;SDS011;40566;50.006;36.180;2024-02-14T18:23:04;18.15;;;7.35;;
54665;SDS011;40566;50.006;36.180;2024-02-14T18:28:22;16.27;;;6.72;;
54665;SDS011;40566;50.006;36.180;2024-02-14T18:33:43;15.98;;;5.85;;
54665;SDS011;40566;50.006;36.180;2024-02-14T18:39:02;15.00;;;5.88;;
54665;SDS011;40566;50.006;36.180;2024-02-14T18:44:22;14.27;;;6.28;;
54665;SDS011;40566;50.006;36.180;2024-02-14T18:49:41;18.63;;;5.72;;
54665;SDS011;40566;50.006;36.180;2024-02-14T18:55:03;17.15;;;5.65;;
54665;SDS011;40566;50.006;36.180;2024-02-14T19:00:23;16.80;;;5.90;;
54665;SDS011;40566;50.006;36.180;2024-02-14T19:05:43;15.10;;;6.47;;
54665;SDS011;40566;50.006;36.180;2024-02-14T19:11:02;11.05;;;4.25;;
54665;SDS011;40566;50.006;36.180;2024-02-14T19:16:22;15.93;;;5.25;;
54665;SDS011;40566;50.006;36.180;2024-02-14T19:21:42;13.35;;;5.43;;
54665;SDS011;40566;50.006;36.180;2024-02-14T19:27:02;13.35;;;4.82;;
54665;SDS011;40566;50.006;36.180;2024-02-14T19:32:21;14.63;;;5.32;;
54665;SDS011;40566;50.006;36.180;2024-02-14T19:37:41;15.20;;;5.07;;
54665;SDS011;40566;50.006;36.180;2024-02-14T19:43:00;9.82;;;3.58;;
54665;SDS011;40566;50.006;36.180;2024-02-14T19:48:19;11.20;;;4.53;;
54665;SDS011;40566;50.006;36.180;2024-02-14T19:53:38;18.20;;;4.45;;
54665;SDS011;40566;50.006;36.180;2024-02-14T19:58:58;13.73;;;4.47;;
54665;SDS011;40566;50.006;36.180;2024-02-14T20:04:17;10.88;;;4.10;;
54665;SDS011;40566;50.006;36.180;2024-02-14T20:09:36;9.88;;;3.38;;
54665;SDS011;40566;50.006;36.180;2024-02-14T20:14:55;12.13;;;4.30;;
54665;SDS011;40566;50.006;36.180;2024-02-14T20:20:14;12.27;;;4.88;;
54665;SDS011;40566;50.006;36.180;2024-02-14T20:25:34;16.75;;;5.55;;
54665;SDS011;40566;50.006;36.180;2024-02-14T20:30:54;10.13;;;3.33;;
54665;SDS011;40566;50.006;36.180;2024-02-14T20:36:13;15.60;;;5.47;;
54665;SDS011;40566;50.006;36.180;2024-02-14T20:41:32;12.52;;;4.30;;
54665;SDS011;40566;50.006;36.180;2024-02-14T20:46:51;15.95;;;4.97;;
54665;SDS011;40566;50.006;36.180;2024-02-14T20:52:11;11.88;;;4.10;;
54665;SDS011;40566;50.006;36.180;2024-02-14T20:57:31;12.80;;;4.40;;
54665;SDS011;40566;50.006;36.180;2024-02-14T21:02:51;18.40;;;6.88;;
54665;SDS011;40566;50.006;36.180;2024-02-14T21:08:10;10.80;;;4.43;;
54665;SDS011;40566;50.006;36.180;2024-02-14T21:13:29;12.32;;;5.05;;
54665;SDS011;40566;50.006;36.180;2024-02-14T21:18:48;12.52;;;4.70;;
54665;SDS011;40566;50.006;36.180;2024-02-14T21:24:07;14.82;;;4.97;;
54665;SDS011;40566;50.006;36.180;2024-02-14T21:29:27;13.52;;;5.20;;
54665;SDS011;40566;50.006;36.180;2024-02-14T21:34:46;8.52;;;3.08;;
54665;SDS011;40566;50.006;36.180;2024-02-14T21:40:05;14.43;;;4.63;;
54665;SDS011;40566;50.006;36.180;2024-02-14T21:45:25;18.15;;;4.80;;
54665;SDS011;40566;50.006;36.180;2024-02-14T21:50:43;10.27;;;3.47;;
54665;SDS011;40566;50.006;36.180;2024-02-14T21:56:02;10.63;;;4.68;;
54665;SDS011;40566;50.006;36.180;2024-02-14T22:01:22;22.27;;;5.20;;
54665;SDS011;40566;50.006;36.180;2024-02-14T22:06:41;12.30;;;4.15;;
54665;SDS011;40566;50.006;36.180;2024-02-14T22:12:00;13.93;;;5.43;;
54665;SDS011;40566;50.006;36.180;2024-02-14T22:17:20;11.82;;;4.47;;
54665;SDS011;40566;50.006;36.180;2024-02-14T22:22:39;13.05;;;4.25;;
54665;SDS011;40566;50.006;36.180;2024-02-14T22:27:59;11.65;;;4.57;;
54665;SDS011;40566;50.006;36.180;2024-02-14T22:33:18;12.25;;;3.83;;
54665;SDS011;40566;50.006;36.180;2024-02-14T22:38:38;10.50;;;3.72;;
54665;SDS011;40566;50.006;36.180;2024-02-14T22:43:57;14.48;;;4.75;;
54665;SDS011;40566;50.006;36.180;2024-02-14T22:49:16;15.07;;;3.95;;
54665;SDS011;40566;50.006;36.180;2024-02-14T22:54:35;11.27;;;4.75;;
54665;SDS011;40566;50.006;36.180;2024-02-14T22:59:54;15.38;;;6.18;;
54665;SDS011;40566;50.006;36.180;2024-02-14T23:05:13;19.50;;;5.57;;
54665;SDS011;40566;50.006;36.180;2024-02-14T23:10:33;16.17;;;5.05;;
54665;SDS011;40566;50.006;36.180;2024-02-14T23:15:51;21.80;;;5.25;;
54665;SDS011;40566;50.006;36.180;2024-02-14T23:21:10;16.77;;;4.95;;
54665;SDS011;40566;50.006;36.180;2024-02-14T23:26:30;16.88;;;5.40;;
54665;SDS011;40566;50.006;36.180;2024-02-14T23:31:49;14.68;;;4.20;;
54665;SDS011;40566;50.006;36.180;2024-02-14T23:37:08;13.05;;;4.85;;
54665;SDS011;40566;50.006;36.180;2024-02-14T23:42:27;8.95;;;4.07;;
54665;SDS011;40566;50.006;36.180;2024-02-14T23:47:46;7.53;;;3.55;;
54665;SDS011;40566;50.006;36.180;2024-02-14T23:53:05;13.07;;;4.10;;
54665;SDS011;40566;50.006;36.180;2024-02-14T23:58:27;13.40;;;5.32;;
